createdAt,value
2022-08-09T00:00:00.582Z,37.90
2022-08-09T00:02:33.476Z,38.00
2022-08-09T00:06:15.791Z,38.10
2022-08-09T00:07:52.364Z,38.10
2022-08-09T00:10:24.631Z,38.20
2022-08-09T00:12:53.533Z,37.40
2022-08-09T00:15:35.377Z,37.90
2022-08-09T00:18:12.391Z,38.10
2022-08-09T00:20:50.127Z,38.30
2022-08-09T00:23:57.991Z,38.40
2022-08-09T00:26:11.001Z,38.70
2022-08-09T00:28:40.822Z,38.70
2022-08-09T00:31:57.173Z,38.80
2022-08-09T00:33:57.166Z,38.90
2022-08-09T00:36:27.152Z,39.00
2022-08-09T00:38:59.014Z,39.20
2022-08-09T00:44:09.818Z,38.30
2022-08-09T00:44:26.753Z,39.00
2022-08-09T00:47:04.844Z,39.30
2022-08-09T00:49:34.886Z,39.30
2022-08-09T00:52:17.429Z,39.60
2022-08-09T00:54:48.538Z,39.80
2022-08-09T00:57:33.937Z,39.90
2022-08-09T01:00:21.743Z,40.00
2022-08-09T01:02:54.229Z,40.10
2022-08-09T01:05:50.785Z,40.30
2022-08-09T01:08:27.603Z,40.50
2022-08-09T01:11:14.875Z,40.60
2022-08-09T01:13:59.586Z,40.90
2022-08-09T01:16:35.094Z,40.80
2022-08-09T01:19:17.113Z,41.00
2022-08-09T01:22:16.452Z,41.20
2022-08-09T01:24:56.801Z,41.30
2022-08-09T01:27:27.599Z,41.40
2022-08-09T01:30:01.136Z,41.40
2022-08-09T01:32:35.248Z,41.60
2022-08-09T01:35:28.764Z,41.80
2022-08-09T01:38:08.092Z,41.80
2022-08-09T01:40:44.938Z,41.90
2022-08-09T01:43:24.362Z,41.90
2022-08-09T01:45:58.034Z,41.90
2022-08-09T01:48:29.746Z,42.10
2022-08-09T01:51:00.503Z,42.10
2022-08-09T01:53:41.305Z,42.10
2022-08-09T01:56:12.603Z,42.20
2022-08-09T01:58:49.018Z,42.30
2022-08-09T02:01:19.975Z,42.40
2022-08-09T02:04:00.963Z,42.30
2022-08-09T02:06:45.520Z,42.50
2022-08-09T02:09:24.666Z,42.50
2022-08-09T02:11:54.194Z,42.50
2022-08-09T02:14:28.448Z,42.60
2022-08-09T02:17:15.456Z,42.80
2022-08-09T02:19:47.161Z,42.80
2022-08-09T02:22:31.801Z,42.70
2022-08-09T02:25:08.910Z,43.00
2022-08-09T02:27:57.735Z,43.00
2022-08-09T02:30:34.101Z,43.20
2022-08-09T02:33:07.808Z,43.20
2022-08-09T02:36:01.853Z,43.10
2022-08-09T02:38:36.360Z,43.20
2022-08-09T02:41:09.513Z,43.30
2022-08-09T02:43:53.445Z,43.50
2022-08-09T02:46:28.632Z,43.60
2022-08-09T02:49:00.415Z,43.70
2022-08-09T02:51:36.919Z,43.80
2022-08-09T02:54:10.984Z,43.80
2022-08-09T02:56:51.118Z,44.00
2022-08-09T02:59:26.296Z,44.00
2022-08-09T03:02:16.784Z,44.10
2022-08-09T03:04:50.681Z,44.30
2022-08-09T03:07:20.461Z,44.20
2022-08-09T03:09:56.318Z,44.20
2022-08-09T03:12:25.820Z,44.40
2022-08-09T03:14:54.831Z,44.40
2022-08-09T03:17:27.147Z,44.60
2022-08-09T03:20:03.487Z,44.70
2022-08-09T03:22:42.260Z,44.70
2022-08-09T03:25:26.053Z,44.80
2022-08-09T03:28:04.006Z,44.90
2022-08-09T03:30:34.262Z,45.00
2022-08-09T03:33:17.595Z,45.10
2022-08-09T03:36:12.281Z,45.40
2022-08-09T03:38:42.755Z,45.30
2022-08-09T03:41:15.215Z,45.30
2022-08-09T03:44:03.005Z,45.50
2022-08-09T03:46:32.698Z,45.50
2022-08-09T03:49:08.841Z,45.60
2022-08-09T03:51:56.331Z,45.90
2022-08-09T03:54:31.717Z,45.90
2022-08-09T03:57:04.531Z,50.20
2022-08-09T03:59:53.715Z,51.90
2022-08-09T04:02:30.557Z,48.30
2022-08-09T04:05:05.769Z,47.20
2022-08-09T04:07:52.865Z,46.70
2022-08-09T04:10:28.879Z,46.40
2022-08-09T04:13:01.078Z,46.20
2022-08-09T04:16:17.042Z,46.10
2022-08-09T04:18:21.236Z,46.10
2022-08-09T04:20:51.717Z,46.10
2022-08-09T04:23:24.329Z,46.30
2022-08-09T04:25:54.761Z,46.30
2022-08-09T04:28:33.058Z,46.50
2022-08-09T04:31:09.756Z,46.50
2022-08-09T04:33:51.538Z,46.60
2022-08-09T04:36:25.049Z,46.70
2022-08-09T04:38:53.846Z,46.80
2022-08-09T04:41:23.763Z,46.80
2022-08-09T04:44:05.054Z,47.00
2022-08-09T04:46:38.108Z,47.00
2022-08-09T04:49:40.058Z,47.10
2022-08-09T04:52:18.322Z,47.20
2022-08-09T04:54:54.668Z,47.30
2022-08-09T04:57:23.939Z,47.30
2022-08-09T04:59:53.552Z,47.50
2022-08-09T05:02:21.802Z,47.60
2022-08-09T05:04:53.185Z,47.60
2022-08-09T05:07:29.124Z,47.70
2022-08-09T05:10:01.983Z,47.80
2022-08-09T05:12:33.157Z,47.80
2022-08-09T05:15:03.368Z,47.80
2022-08-09T05:18:42.348Z,47.80
2022-08-09T05:20:21.268Z,47.90
2022-08-09T05:23:54.625Z,47.80
2022-08-09T05:25:50.957Z,48.00
2022-08-09T05:28:20.207Z,47.90
2022-08-09T05:30:51.605Z,47.90
2022-08-09T05:33:20.213Z,48.00
2022-08-09T05:35:57.209Z,47.90
2022-08-09T05:38:27.944Z,48.00
2022-08-09T05:40:56.223Z,48.10
2022-08-09T05:43:24.741Z,48.00
2022-08-09T05:46:00.134Z,47.90
2022-08-09T05:48:32.955Z,48.00
2022-08-09T05:51:42.938Z,48.00
2022-08-09T05:53:57.527Z,48.00
2022-08-09T05:56:27.130Z,47.90
2022-08-09T05:58:58.567Z,47.80
2022-08-09T06:01:27.197Z,47.80
2022-08-09T06:04:05.455Z,47.00
2022-08-09T06:06:34.338Z,47.40
2022-08-09T06:09:05.594Z,47.40
2022-08-09T06:11:57.053Z,47.40
2022-08-09T06:14:25.932Z,47.40
2022-08-09T06:16:55.488Z,47.30
2022-08-09T06:19:26.550Z,47.40
2022-08-09T06:21:59.285Z,47.20
2022-08-09T06:24:28.981Z,47.10
2022-08-09T06:26:57.504Z,47.00
2022-08-09T06:29:26.885Z,46.90
2022-08-09T06:32:17.253Z,46.80
2022-08-09T06:34:43.326Z,46.60
2022-08-09T06:37:11.485Z,46.40
2022-08-09T06:39:57.921Z,46.30
2022-08-09T06:42:30.841Z,46.20
2022-08-09T06:45:20.470Z,45.90
2022-08-09T06:47:58.046Z,45.80
2022-08-09T06:50:30.942Z,45.80
2022-08-09T06:53:00.786Z,45.50
2022-08-09T06:55:33.092Z,45.30
2022-08-09T06:58:04.520Z,45.40
2022-08-09T07:00:50.509Z,45.20
2022-08-09T07:03:27.960Z,45.00
2022-08-09T07:06:03.578Z,44.70
2022-08-09T07:08:33.935Z,44.60
2022-08-09T07:11:06.287Z,44.80
2022-08-09T07:13:45.036Z,44.60
2022-08-09T07:16:41.909Z,44.50
2022-08-09T07:19:15.379Z,44.30
2022-08-09T07:21:55.207Z,44.30
2022-08-09T07:24:32.918Z,44.10
2022-08-09T07:27:33.847Z,44.00
2022-08-09T07:30:00.647Z,43.70
2022-08-09T07:32:32.112Z,43.50
2022-08-09T07:35:08.160Z,43.40
2022-08-09T07:37:44.416Z,43.10
2022-08-09T07:40:17.374Z,43.00
2022-08-09T07:42:56.382Z,43.00
2022-08-09T07:45:38.196Z,42.80
2022-08-09T07:48:28.563Z,42.70
2022-08-09T07:51:10.051Z,42.50
2022-08-09T07:54:05.461Z,42.40
2022-08-09T07:56:36.919Z,42.20
2022-08-09T07:59:14.077Z,42.10
2022-08-09T08:01:53.022Z,41.90
2022-08-09T08:04:25.461Z,42.10
2022-08-09T08:07:00.409Z,41.90
2022-08-09T08:09:51.451Z,41.70
2022-08-09T08:12:36.657Z,41.40
2022-08-09T08:15:08.026Z,41.30
2022-08-09T08:17:53.778Z,40.90
2022-08-09T08:20:29.381Z,40.70
2022-08-09T08:23:03.811Z,40.80
2022-08-09T08:25:48.179Z,40.60
2022-08-09T08:28:18.131Z,40.00
2022-08-09T08:30:55.913Z,39.90
2022-08-09T08:33:24.826Z,39.60
2022-08-09T08:35:59.245Z,39.70
2022-08-09T08:38:29.666Z,39.50
2022-08-09T08:40:59.367Z,39.10
2022-08-09T08:43:27.813Z,38.70
2022-08-09T08:46:09.802Z,38.40
2022-08-09T08:48:53.998Z,38.20
2022-08-09T08:51:23.595Z,38.20
2022-08-09T08:54:03.120Z,37.90
2022-08-09T08:56:35.452Z,37.80
2022-08-09T08:59:18.736Z,37.70
2022-08-09T09:01:52.041Z,37.40
2022-08-09T09:04:27.266Z,36.90
2022-08-09T09:06:59.186Z,36.90
2022-08-09T09:09:58.332Z,36.40
2022-08-09T09:12:20.769Z,36.40
2022-08-09T09:14:50.091Z,36.50
2022-08-09T09:17:22.197Z,37.30
2022-08-09T09:19:51.167Z,36.00
2022-08-09T09:22:26.661Z,35.80
2022-08-09T09:26:02.013Z,35.60
2022-08-09T09:28:04.055Z,35.90
2022-08-09T09:30:41.148Z,35.60
2022-08-09T09:33:14.352Z,35.50
2022-08-09T09:36:02.242Z,35.00
2022-08-09T09:38:46.515Z,34.60
2022-08-09T09:41:33.043Z,34.70
2022-08-09T09:44:11.088Z,34.20
2022-08-09T09:46:45.940Z,34.20
2022-08-09T09:49:50.141Z,34.00
2022-08-09T09:52:33.459Z,33.90
2022-08-09T09:55:16.691Z,33.90
2022-08-09T09:58:03.825Z,33.50
2022-08-09T10:00:54.425Z,33.20
2022-08-09T10:03:57.200Z,33.50
2022-08-09T10:06:32.350Z,33.10
2022-08-09T10:09:21.606Z,32.50
2022-08-09T10:12:07.860Z,32.50
2022-08-09T10:14:48.035Z,32.10
2022-08-09T10:17:54.839Z,32.30
2022-08-09T10:20:31.826Z,32.50
2022-08-09T10:23:17.147Z,32.30
2022-08-09T10:26:04.866Z,31.90
2022-08-09T10:28:36.788Z,31.70
2022-08-09T10:34:11.424Z,31.50
2022-08-09T10:36:43.508Z,31.40
2022-08-09T10:39:19.986Z,31.00
2022-08-09T10:41:48.599Z,30.80
2022-08-09T10:44:21.884Z,30.90
2022-08-09T10:47:20.369Z,30.30
2022-08-09T10:50:26.973Z,30.80
2022-08-09T10:53:10.431Z,30.10
2022-08-09T10:55:58.269Z,30.20
2022-08-09T10:58:33.895Z,30.00
2022-08-09T11:03:06.430Z,29.80
2022-08-09T11:04:28.283Z,30.00
2022-08-09T11:07:56.891Z,30.10
2022-08-09T11:10:18.229Z,29.80
2022-08-09T11:13:50.156Z,29.90
2022-08-09T11:16:48.125Z,29.50
2022-08-09T11:20:19.765Z,29.60
2022-08-09T11:23:00.704Z,29.30
2022-08-09T11:25:49.374Z,29.10
2022-08-09T11:28:56.562Z,29.80
2022-08-09T11:31:52.994Z,29.20
2022-08-09T11:34:43.917Z,28.90
2022-08-09T11:37:23.759Z,28.70
2022-08-09T11:40:04.164Z,28.90
2022-08-09T11:42:50.565Z,28.80
2022-08-09T11:45:23.236Z,29.20
2022-08-09T11:48:01.440Z,28.50
2022-08-09T11:52:56.991Z,28.20
2022-08-09T11:54:13.124Z,28.20
2022-08-09T11:56:47.766Z,28.00
2022-08-09T11:59:30.529Z,28.10
2022-08-09T12:02:35.268Z,28.30
2022-08-09T12:04:58.953Z,27.80
2022-08-09T12:07:41.256Z,27.70
2022-08-09T12:10:14.443Z,27.70
2022-08-09T12:13:03.791Z,27.80
2022-08-09T12:15:52.154Z,27.70
2022-08-09T12:18:25.913Z,27.60
2022-08-09T12:21:00.605Z,28.60
2022-08-09T12:23:57.867Z,27.60
2022-08-09T12:26:26.075Z,27.50
2022-08-09T12:29:10.127Z,27.50
2022-08-09T12:32:02.291Z,27.10
2022-08-09T12:34:37.504Z,27.30
2022-08-09T12:37:22.184Z,27.10
2022-08-09T12:40:07.838Z,26.90
2022-08-09T12:42:37.649Z,26.90
2022-08-09T12:45:34.005Z,26.80
2022-08-09T12:47:58.610Z,26.60
2022-08-09T12:50:28.649Z,26.80
2022-08-09T12:53:09.249Z,26.50
2022-08-09T12:56:14.701Z,26.70
2022-08-09T12:58:33.928Z,26.60
2022-08-09T13:01:05.142Z,26.70
2022-08-09T13:03:58.946Z,27.00
2022-08-09T13:06:33.900Z,26.80
2022-08-09T13:09:07.549Z,26.90
2022-08-09T13:11:42.570Z,27.20
2022-08-09T13:14:40.808Z,26.90
2022-08-09T13:17:08.650Z,26.90
2022-08-09T13:20:07.248Z,26.90
2022-08-09T13:22:35.262Z,26.60
2022-08-09T13:25:08.000Z,26.70
2022-08-09T13:27:55.029Z,26.80
2022-08-09T13:30:50.004Z,26.70
2022-08-09T13:33:23.682Z,26.60
2022-08-09T13:36:24.271Z,26.90
2022-08-09T13:38:56.595Z,26.60
2022-08-09T13:41:58.409Z,26.50
2022-08-09T13:44:16.809Z,26.40
2022-08-09T13:47:19.323Z,26.50
2022-08-09T13:49:37.992Z,26.60
2022-08-09T13:52:09.487Z,26.70
2022-08-09T13:54:42.997Z,26.60
2022-08-09T13:57:37.239Z,26.60
2022-08-09T14:00:12.424Z,26.80
2022-08-09T14:03:57.800Z,26.70
2022-08-09T14:05:58.172Z,26.90
2022-08-09T14:08:19.384Z,27.10
2022-08-09T14:10:52.214Z,26.80
2022-08-09T14:14:15.012Z,26.50
2022-08-09T14:16:14.474Z,26.70
2022-08-09T14:18:45.832Z,26.80
2022-08-09T14:21:22.718Z,26.50
2022-08-09T14:23:55.127Z,26.70
2022-08-09T14:26:30.537Z,26.70
2022-08-09T14:29:03.142Z,26.80
2022-08-09T14:31:36.002Z,26.90
2022-08-09T14:34:31.724Z,27.00
2022-08-09T14:37:01.594Z,26.50
2022-08-09T14:39:39.839Z,26.30
2022-08-09T14:42:30.700Z,26.40
2022-08-09T14:45:52.008Z,26.60
2022-08-09T14:47:57.439Z,26.50
2022-08-09T14:50:31.621Z,26.60
2022-08-09T14:53:01.296Z,26.40
2022-08-09T14:55:32.714Z,26.40
2022-08-09T14:58:05.182Z,26.70
2022-08-09T15:00:36.093Z,26.60
2022-08-09T15:03:05.352Z,26.70
2022-08-09T15:05:33.879Z,27.30
2022-08-09T15:08:10.464Z,26.80
2022-08-09T15:10:39.007Z,26.70
2022-08-09T15:13:10.164Z,27.20
2022-08-09T15:15:39.632Z,26.70
2022-08-09T15:18:12.345Z,26.70
2022-08-09T15:22:01.049Z,26.70
2022-08-09T15:24:00.651Z,26.70
2022-08-09T15:26:30.736Z,26.60
2022-08-09T15:29:04.726Z,27.10
2022-08-09T15:31:40.934Z,26.60
2022-08-09T15:34:32.166Z,26.60
2022-08-09T15:36:59.949Z,26.60
2022-08-09T15:39:49.891Z,26.60
2022-08-09T15:42:20.367Z,26.60
2022-08-09T15:44:51.601Z,26.70
2022-08-09T15:47:22.324Z,26.70
2022-08-09T15:50:04.079Z,26.80
2022-08-09T15:52:34.216Z,26.70
2022-08-09T15:55:02.709Z,26.90
2022-08-09T15:57:35.550Z,26.80
2022-08-09T16:00:24.537Z,26.90
2022-08-09T16:02:56.558Z,27.30
2022-08-09T16:05:47.723Z,26.90
2022-08-09T16:08:30.005Z,26.80
2022-08-09T16:10:59.804Z,27.00
2022-08-09T16:14:03.638Z,27.10
2022-08-09T16:16:28.282Z,27.10
2022-08-09T16:18:56.768Z,27.00
2022-08-09T16:21:26.181Z,27.00
2022-08-09T16:23:58.808Z,27.10
2022-08-09T16:26:35.273Z,27.30
2022-08-09T16:29:12.125Z,27.30
2022-08-09T16:32:17.597Z,27.50
2022-08-09T16:34:54.448Z,27.30
2022-08-09T16:37:54.963Z,27.40
2022-08-09T16:40:12.385Z,27.20
2022-08-09T16:42:45.481Z,27.20
2022-08-09T16:45:14.997Z,27.50
2022-08-09T16:48:40.195Z,27.10
2022-08-09T16:50:38.761Z,27.10
2022-08-09T16:53:08.940Z,27.10
2022-08-09T16:55:58.715Z,27.70
2022-08-09T16:58:25.975Z,27.30
2022-08-09T17:00:54.895Z,27.30
2022-08-09T17:03:25.146Z,27.30
2022-08-09T17:06:07.321Z,27.30
2022-08-09T17:08:46.752Z,27.30
2022-08-09T17:11:39.999Z,27.40
2022-08-09T17:14:26.430Z,27.40
2022-08-09T17:17:01.139Z,27.40
2022-08-09T17:19:46.588Z,27.40
2022-08-09T17:22:23.956Z,27.40
2022-08-09T17:25:03.439Z,27.40
2022-08-09T17:27:33.414Z,27.50
2022-08-09T17:30:04.831Z,27.50
2022-08-09T17:32:38.217Z,27.60
2022-08-09T17:35:11.284Z,27.80
2022-08-09T17:38:11.325Z,27.80
2022-08-09T17:40:31.930Z,28.00
2022-08-09T17:43:10.767Z,28.10
2022-08-09T17:46:03.863Z,28.10
2022-08-09T17:48:38.309Z,28.20
2022-08-09T17:51:18.380Z,28.30
2022-08-09T17:53:53.398Z,28.30
2022-08-09T17:56:27.966Z,28.20
2022-08-09T17:58:58.054Z,28.20
2022-08-09T18:01:40.800Z,28.10
2022-08-09T18:04:14.544Z,28.30
2022-08-09T18:06:54.052Z,28.30
2022-08-09T18:09:25.043Z,28.30
2022-08-09T18:12:15.515Z,28.50
2022-08-09T18:14:49.797Z,28.60
2022-08-09T18:17:26.857Z,28.90
2022-08-09T18:20:59.455Z,28.70
2022-08-09T18:22:59.747Z,28.90
2022-08-09T18:25:50.604Z,28.90
2022-08-09T18:30:40.805Z,29.00
2022-08-09T18:31:09.598Z,29.10
2022-08-09T18:33:37.739Z,29.10
2022-08-09T18:36:14.306Z,29.40
2022-08-09T18:39:00.950Z,29.30
2022-08-09T18:41:34.649Z,29.40
2022-08-09T18:44:13.074Z,29.40
2022-08-09T18:46:47.503Z,29.60
2022-08-09T18:49:28.412Z,29.60
2022-08-09T18:52:00.608Z,29.90
2022-08-09T18:54:30.461Z,29.80
2022-08-09T18:57:06.193Z,30.00
2022-08-09T18:59:37.700Z,29.90
2022-08-09T19:02:18.120Z,30.00
2022-08-09T19:04:47.555Z,30.00
2022-08-09T19:07:16.612Z,30.30
2022-08-09T19:10:17.098Z,30.40
2022-08-09T19:12:36.634Z,30.70
2022-08-09T19:15:07.408Z,30.40
2022-08-09T19:17:54.387Z,30.60
2022-08-09T19:20:24.914Z,31.00
2022-08-09T19:22:54.732Z,30.70
2022-08-09T19:25:42.741Z,30.70
2022-08-09T19:28:13.659Z,30.90
2022-08-09T19:30:44.588Z,31.20
2022-08-09T19:33:19.322Z,31.20
2022-08-09T19:35:58.545Z,31.10
2022-08-09T19:38:29.729Z,31.20
2022-08-09T19:41:01.685Z,31.20
2022-08-09T19:44:00.431Z,31.30
2022-08-09T19:46:34.181Z,31.50
2022-08-09T19:50:07.381Z,31.50
2022-08-09T19:51:57.048Z,31.60
2022-08-09T19:54:25.819Z,31.60
2022-08-09T19:56:55.528Z,31.70
2022-08-09T19:59:39.358Z,31.90
2022-08-09T20:04:06.975Z,32.00
2022-08-09T20:05:02.506Z,31.90
2022-08-09T20:07:58.956Z,32.00
2022-08-09T20:10:34.663Z,32.00
2022-08-09T20:13:10.417Z,32.20
2022-08-09T20:16:33.030Z,32.40
2022-08-09T20:18:28.066Z,32.30
2022-08-09T20:20:57.247Z,32.50
2022-08-09T20:23:38.604Z,32.80
2022-08-09T20:26:08.412Z,32.80
2022-08-09T20:28:47.956Z,32.70
2022-08-09T20:31:17.240Z,32.90
2022-08-09T20:33:45.582Z,33.00
2022-08-09T20:36:14.237Z,33.00
2022-08-09T20:41:35.157Z,33.30
2022-08-09T20:44:10.522Z,33.30
2022-08-09T20:46:42.878Z,33.60
2022-08-09T20:49:14.119Z,33.50
2022-08-09T20:51:45.131Z,33.70
2022-08-09T20:54:19.078Z,33.70
2022-08-09T20:56:49.695Z,33.80
2022-08-09T21:00:19.825Z,34.00
2022-08-09T21:02:17.295Z,34.20
2022-08-09T21:05:53.137Z,34.20
2022-08-09T21:07:40.528Z,34.30
2022-08-09T21:10:11.525Z,34.50
2022-08-09T21:12:40.397Z,39.30
2022-08-09T21:15:34.721Z,39.00
2022-08-09T21:18:21.688Z,36.30
2022-08-09T21:20:54.431Z,35.80
2022-08-09T21:23:35.964Z,35.70
2022-08-09T21:26:12.538Z,35.50
2022-08-09T21:28:55.583Z,35.50
2022-08-09T21:31:49.155Z,35.50
2022-08-09T21:34:21.061Z,35.60
2022-08-09T21:36:57.294Z,35.70
2022-08-09T21:39:28.285Z,35.70
2022-08-09T21:42:11.117Z,35.90
2022-08-09T21:44:39.556Z,35.90
2022-08-09T21:47:17.384Z,36.20
2022-08-09T21:49:46.651Z,36.30
2022-08-09T21:52:20.350Z,36.30
2022-08-09T21:54:56.882Z,36.60
2022-08-09T21:57:39.311Z,36.60
2022-08-09T22:00:25.341Z,36.80
2022-08-09T22:02:58.830Z,36.80
2022-08-09T22:05:35.403Z,36.90
2022-08-09T22:08:05.098Z,36.90
2022-08-09T22:10:33.394Z,37.00
2022-08-09T22:13:07.433Z,37.20
2022-08-09T22:15:40.049Z,37.20
2022-08-09T22:18:12.102Z,37.20
2022-08-09T22:20:41.221Z,37.30
2022-08-09T22:23:10.645Z,37.30
2022-08-09T22:26:07.135Z,37.40
2022-08-09T22:28:32.846Z,37.40
2022-08-09T22:31:02.121Z,37.50
2022-08-09T22:33:42.607Z,37.60
2022-08-09T22:36:20.487Z,37.70
2022-08-09T22:38:49.141Z,37.70
2022-08-09T22:41:17.623Z,37.70
2022-08-09T22:44:03.735Z,37.90
2022-08-09T22:48:15.373Z,38.00
2022-08-09T22:49:23.439Z,38.00
2022-08-09T22:51:57.190Z,38.10
2022-08-09T22:54:27.498Z,38.30
2022-08-09T22:56:56.986Z,38.30
2022-08-09T22:59:57.543Z,38.30
2022-08-09T23:02:20.063Z,38.40
2022-08-09T23:04:53.826Z,38.30
2022-08-09T23:08:21.353Z,38.40
2022-08-09T23:10:28.686Z,38.50
2022-08-09T23:12:56.818Z,38.50
2022-08-09T23:15:25.001Z,38.50
2022-08-09T23:17:53.121Z,38.70
2022-08-09T23:20:23.118Z,38.70
2022-08-09T23:22:51.384Z,39.00
2022-08-09T23:25:19.487Z,38.80
2022-08-09T23:27:59.650Z,38.90
2022-08-09T23:30:35.849Z,39.00
2022-08-09T23:33:03.918Z,39.00
2022-08-09T23:36:05.592Z,39.00
2022-08-09T23:38:21.970Z,39.10
2022-08-09T23:40:51.918Z,39.10
2022-08-09T23:43:20.265Z,39.20
2022-08-09T23:45:48.580Z,39.10
2022-08-09T23:48:16.975Z,39.20
2022-08-09T23:50:46.533Z,39.20
2022-08-09T23:53:14.751Z,39.30
2022-08-09T23:55:49.784Z,39.30
2022-08-09T23:58:29.567Z,39.40
